Seattle, Washington
Traffic Map
Current Weather Conditions
Seattle, Washington
Overcast
Overcast
65°
Feels Like: 65°
Wind Chill: 65° Ceiling: 5500
Heat Index: 65° Visibility: 10mi
Dew Point: 57° Wind: 3mph
Humidity: 75% Direction: 10° (N)
Pressure: 30.03in Gusts: 0mph
Raw Report DataKBFI 020853Z 01003KT 10SM OVC055 18/14 A3003 RMK AO2 SLP170 T01830139 58004
Traffic Incident Summary
Active as of:
Severity:
Category:
InformationThere was an issue retrieving the traffic information for this location. Please try a different location or try again shortly.
Advertisements
Track Severe Weather on mobile